Time;durP1;ratioP1;P1;durP2;ratioP2;P2;SDS_P1;SDS_P2;PMS_P1;PMS_P2;Temp;Humidity;BMP_temperature;BMP_pressure;BME280_temperature;BME280_humidity;BME280_pressure;Samples;Min_cycle;Max_cycle;Signal;HPM_P1;HPM_P2
2021/06/30 09:29:12;;;;;;;7.68;7.07;;;;;;;;;;5075057;27;20740;-62
2021/06/30 09:31:41;;;;;;;7.40;6.90;;;;;;;;;;5077075;28;24538;-63
2021/06/30 09:34:06;;;;;;;5.70;5.30;;;;;;;;;;5074651;28;24444;-62
2021/06/30 09:36:42;;;;;;;5.93;5.53;;;;;;;;;;5068134;28;24407;-61
2021/06/30 09:39:10;;;;;;;6.45;6.05;;;;;;;;;;5065508;28;24464;-63
2021/06/30 09:41:36;;;;;;;5.70;5.30;;;;;;;;;;5070123;28;24422;-62
2021/06/30 09:44:05;;;;;;;6.05;5.65;;;;;;;;;;5067726;28;24403;-62
2021/06/30 09:46:30;;;;;;;6.20;5.80;;;;;;;;;;5062709;28;24941;-62
2021/06/30 09:48:56;;;;;;;4.90;4.20;;;;;;;;;;5063148;28;24466;-63
2021/06/30 09:51:21;;;;;;;4.50;4.20;;;;;;;;;;5062989;28;24836;-63
2021/06/30 09:53:47;;;;;;;5.40;5.10;;;;;;;;;;5063265;28;24438;-63
2021/06/30 09:56:34;;;;;;;4.00;3.80;;;;;;;;;;5082879;28;24403;-62
2021/06/30 09:59:00;;;;;;;4.35;4.00;;;;;;;;;;5082081;28;24398;-62
2021/06/30 10:01:25;;;;;;;3.97;3.67;;;;;;;;;;5071213;28;24473;-62
2021/06/30 10:03:50;;;;;;;4.10;3.80;;;;;;;;;;5061810;28;25012;-62
2021/06/30 10:06:27;;;;;;;3.80;3.50;;;;;;;;;;5062034;28;24456;-62
2021/06/30 10:08:54;;;;;;;4.38;4.10;;;;;;;;;;5062772;28;24650;-62
2021/06/30 10:11:19;;;;;;;3.95;3.65;;;;;;;;;;5082457;28;24410;-62
2021/06/30 10:13:44;;;;;;;4.07;3.20;;;;;;;;;;5072763;28;24417;-62
2021/06/30 10:16:09;;;;;;;3.90;3.60;;;;;;;;;;5062403;28;24399;-62
2021/06/30 10:18:34;;;;;;;4.10;3.90;;;;;;;;;;5060629;28;24457;-61
2021/06/30 10:20:59;;;;;;;3.60;3.40;;;;;;;;;;5062333;28;24476;-61
2021/06/30 10:23:28;;;;;;;5.20;3.65;;;;;;;;;;5062210;28;24427;-62
2021/06/30 10:25:54;;;;;;;3.40;3.20;;;;;;;;;;5066965;28;24425;-64
2021/06/30 10:28:19;;;;;;;5.80;3.75;;;;;;;;;;5080704;28;24449;-62
2021/06/30 10:30:44;;;;;;;3.10;2.90;;;;;;;;;;5092905;28;25044;-61
2021/06/30 10:33:09;;;;;;;3.33;3.03;;;;;;;;;;5086149;28;24956;-61
2021/06/30 10:35:45;;;;;;;3.40;3.20;;;;;;;;;;5085340;28;24887;-62
2021/06/30 10:38:10;;;;;;;2.90;2.70;;;;;;;;;;5092763;28;24891;-61
2021/06/30 10:40:35;;;;;;;3.10;2.90;;;;;;;;;;5078600;28;24976;-61
2021/06/30 10:43:05;;;;;;;3.47;3.27;;;;;;;;;;5077400;28;24441;-62
2021/06/30 10:45:31;;;;;;;3.22;3.03;;;;;;;;;;5088620;28;24948;-62
2021/06/30 10:48:02;;;;;;;3.00;2.80;;;;;;;;;;5073020;28;24465;-62
2021/06/30 10:50:31;;;;;;;3.70;2.85;;;;;;;;;;5085917;28;24543;-63
2021/06/30 10:53:22;;;;;;;3.22;3.03;;;;;;;;;;5070055;28;24447;-62
2021/06/30 10:55:49;;;;;;;2.78;2.60;;;;;;;;;;5074734;28;25228;-62
2021/06/30 10:58:19;;;;;;;3.20;3.00;;;;;;;;;;5076331;28;25074;-63
2021/06/30 11:00:46;;;;;;;2.83;2.63;;;;;;;;;;5070603;28;24410;-63
2021/06/30 11:03:22;;;;;;;2.60;2.40;;;;;;;;;;5070711;28;24741;-63
2021/06/30 11:05:48;;;;;;;2.95;2.75;;;;;;;;;;5075659;28;24415;-62
2021/06/30 11:08:32;;;;;;;2.88;2.67;;;;;;;;;;5084033;28;24414;-63
2021/06/30 11:10:57;;;;;;;2.70;2.60;;;;;;;;;;5069400;28;24430;-64
2021/06/30 11:13:42;;;;;;;2.30;2.20;;;;;;;;;;5069455;28;24426;-63
2021/06/30 11:16:07;;;;;;;2.13;2.03;;;;;;;;;;5068101;28;24551;-64
2021/06/30 11:18:32;;;;;;;2.60;2.40;;;;;;;;;;5071950;28;25188;-64
2021/06/30 11:21:01;;;;;;;2.47;2.28;;;;;;;;;;5087937;28;24418;-64
2021/06/30 11:23:27;;;;;;;3.47;2.42;;;;;;;;;;5074030;28;24885;-63
2021/06/30 11:25:56;;;;;;;2.40;2.20;;;;;;;;;;5065063;28;24425;-63
2021/06/30 11:28:35;;;;;;;2.60;2.40;;;;;;;;;;5079844;28;24542;-67
2021/06/30 11:31:20;;;;;;;2.67;2.47;;;;;;;;;;5071789;28;24441;-65
2021/06/30 11:34:04;;;;;;;2.72;2.63;;;;;;;;;;5074331;28;24445;-65
2021/06/30 11:36:35;;;;;;;2.60;2.50;;;;;;;;;;5071903;28;24450;-65
2021/06/30 11:39:06;;;;;;;2.50;2.40;;;;;;;;;;5076435;28;24469;-65
2021/06/30 11:41:40;;;;;;;2.70;2.50;;;;;;;;;;5071340;28;24884;-64
2021/06/30 11:44:10;;;;;;;3.00;2.90;;;;;;;;;;5068259;28;24422;-67
2021/06/30 11:46:35;;;;;;;2.92;2.72;;;;;;;;;;5066573;28;24514;-65
2021/06/30 11:49:00;;;;;;;2.75;2.55;;;;;;;;;;5070989;28;25071;-64
2021/06/30 11:51:25;;;;;;;3.00;2.70;;;;;;;;;;5075496;28;24491;-65
2021/06/30 11:53:50;;;;;;;2.70;2.60;;;;;;;;;;5085821;28;24951;-65
2021/06/30 11:56:31;;;;;;;2.80;2.60;;;;;;;;;;5067002;28;24606;-65
2021/06/30 11:58:57;;;;;;;2.70;2.50;;;;;;;;;;5067719;28;25031;-67
2021/06/30 12:01:22;;;;;;;2.73;2.20;;;;;;;;;;5074553;28;24517;-64
2021/06/30 12:03:47;;;;;;;2.40;2.20;;;;;;;;;;5070626;28;24422;-64
2021/06/30 12:06:25;;;;;;;1.90;1.80;;;;;;;;;;5067957;28;24955;-64
2021/06/30 12:09:09;;;;;;;2.10;2.00;;;;;;;;;;5073713;28;24777;-65
2021/06/30 12:11:36;;;;;;;1.90;1.80;;;;;;;;;;5072865;28;24509;-63
2021/06/30 12:14:03;;;;;;;3.40;1.90;;;;;;;;;;5087045;28;24943;-64
2021/06/30 12:16:38;;;;;;;2.17;2.00;;;;;;;;;;5085648;28;24438;-64
2021/06/30 12:19:10;;;;;;;2.20;2.00;;;;;;;;;;5072947;28;24487;-65
2021/06/30 12:21:36;;;;;;;2.13;2.03;;;;;;;;;;5072574;28;24438;-64
2021/06/30 12:24:01;;;;;;;2.00;1.90;;;;;;;;;;5074054;28;24493;-65
2021/06/30 12:26:27;;;;;;;1.93;1.83;;;;;;;;;;5087531;28;24506;-64
2021/06/30 12:28:52;;;;;;;2.20;2.00;;;;;;;;;;5076290;28;24437;-65
2021/06/30 12:31:17;;;;;;;2.17;2.08;;;;;;;;;;5071272;28;24488;-64
2021/06/30 12:33:42;;;;;;;2.00;1.90;;;;;;;;;;5070645;28;24472;-64
2021/06/30 12:36:10;;;;;;;2.00;1.90;;;;;;;;;;5082587;28;24424;-63
2021/06/30 12:38:35;;;;;;;4.80;2.07;;;;;;;;;;5077290;28;24523;-62
2021/06/30 12:41:16;;;;;;;2.10;2.00;;;;;;;;;;5074855;28;24505;-66
2021/06/30 12:43:41;;;;;;;2.20;2.10;;;;;;;;;;5067171;28;25051;-66
2021/06/30 12:46:15;;;;;;;2.00;1.90;;;;;;;;;;5069993;28;25036;-64
2021/06/30 12:48:41;;;;;;;1.95;1.85;;;;;;;;;;5070344;28;24781;-64
2021/06/30 12:51:08;;;;;;;1.70;1.60;;;;;;;;;;5075488;28;24509;-64
2021/06/30 12:53:36;;;;;;;1.88;1.77;;;;;;;;;;5076201;28;24445;-64
2021/06/30 12:56:03;;;;;;;2.15;2.05;;;;;;;;;;5064699;28;25025;-65
2021/06/30 12:58:42;;;;;;;1.90;1.80;;;;;;;;;;5067659;28;24484;-64
2021/06/30 13:01:08;;;;;;;2.10;2.00;;;;;;;;;;5073716;28;24410;-64
2021/06/30 13:03:43;;;;;;;2.03;1.93;;;;;;;;;;5067097;28;24792;-64
2021/06/30 13:06:16;;;;;;;2.10;2.00;;;;;;;;;;5068831;28;24465;-64
2021/06/30 13:08:42;;;;;;;3.78;2.10;;;;;;;;;;5077426;28;24457;-65
2021/06/30 13:11:08;;;;;;;2.35;2.15;;;;;;;;;;5073559;28;24449;-65
2021/06/30 13:13:34;;;;;;;2.30;2.10;;;;;;;;;;5077318;28;24424;-65
2021/06/30 13:16:06;;;;;;;2.20;2.00;;;;;;;;;;5071357;28;24413;-65
2021/06/30 13:18:40;;;;;;;1.92;1.80;;;;;;;;;;5066622;28;25435;-65
2021/06/30 13:21:06;;;;;;;2.10;1.90;;;;;;;;;;5067082;28;24968;-67
2021/06/30 13:23:32;;;;;;;2.00;1.80;;;;;;;;;;5071505;28;24441;-64
2021/06/30 13:26:03;;;;;;;2.50;2.00;;;;;;;;;;5082425;28;24411;-64
2021/06/30 13:34:21;;;;;;;2.20;2.10;;;;;;;;;;5065512;28;24415;-65
2021/06/30 13:36:54;;;;;;;2.00;1.90;;;;;;;;;;5065708;28;24847;-65
2021/06/30 13:39:19;;;;;;;2.08;1.98;;;;;;;;;;5066955;28;24440;-65
2021/06/30 13:41:44;;;;;;;2.30;2.20;;;;;;;;;;5074018;28;24414;-65
2021/06/30 13:44:09;;;;;;;2.50;2.30;;;;;;;;;;5070905;28;25017;-65
2021/06/30 13:46:35;;;;;;;2.17;2.00;;;;;;;;;;5059203;28;24439;-65
2021/06/30 13:49:00;;;;;;;2.50;2.30;;;;;;;;;;5062728;28;24990;-65
2021/06/30 13:51:25;;;;;;;2.00;1.90;;;;;;;;;;5073626;28;24967;-64
2021/06/30 13:53:52;;;;;;;1.80;1.70;;;;;;;;;;5074345;28;24411;-65
2021/06/30 13:56:17;;;;;;;1.80;1.70;;;;;;;;;;5062395;28;24402;-66
2021/06/30 13:58:44;;;;;;;1.43;1.33;;;;;;;;;;5062417;28;24418;-66
2021/06/30 14:01:09;;;;;;;1.70;1.60;;;;;;;;;;5062550;28;24459;-66
2021/06/30 14:03:35;;;;;;;1.65;1.55;;;;;;;;;;5063661;28;25847;-66
2021/06/30 14:06:00;;;;;;;1.70;1.60;;;;;;;;;;5073516;28;24417;-66
2021/06/30 14:08:25;;;;;;;1.90;1.80;;;;;;;;;;5070498;28;24828;-65
2021/06/30 14:10:52;;;;;;;5.30;1.80;;;;;;;;;;5062315;28;24499;-65
2021/06/30 14:13:17;;;;;;;2.00;1.90;;;;;;;;;;5062887;28;24418;-65
2021/06/30 14:15:43;;;;;;;1.30;1.20;;;;;;;;;;5081750;28;25345;-66
2021/06/30 14:18:08;;;;;;;1.80;1.70;;;;;;;;;;5079671;28;24454;-66
2021/06/30 14:20:34;;;;;;;1.70;1.60;;;;;;;;;;5067696;28;24457;-66
2021/06/30 14:22:59;;;;;;;1.50;1.40;;;;;;;;;;5086088;28;24971;-66
2021/06/30 14:25:25;;;;;;;1.40;1.30;;;;;;;;;;5086118;28;24448;-66
2021/06/30 14:27:50;;;;;;;1.80;1.60;;;;;;;;;;5084451;28;24442;-66
2021/06/30 14:30:16;;;;;;;1.30;1.30;;;;;;;;;;5085765;28;24821;-65
2021/06/30 14:32:42;;;;;;;1.40;1.40;;;;;;;;;;5084254;28;24429;-66
2021/06/30 14:35:09;;;;;;;1.80;1.70;;;;;;;;;;5086366;28;24493;-66
2021/06/30 14:37:34;;;;;;;1.90;1.70;;;;;;;;;;5084081;28;24975;-65
2021/06/30 14:40:00;;;;;;;1.40;1.40;;;;;;;;;;5085731;28;24429;-66
2021/06/30 14:42:25;;;;;;;2.20;1.50;;;;;;;;;;5066588;28;25047;-66
2021/06/30 14:44:50;;;;;;;2.10;1.70;;;;;;;;;;5065835;28;24442;-66
2021/06/30 14:47:16;;;;;;;1.60;1.50;;;;;;;;;;5065750;28;24981;-67
2021/06/30 14:49:42;;;;;;;1.58;1.48;;;;;;;;;;5065240;28;24975;-66
2021/06/30 14:52:08;;;;;;;1.90;1.80;;;;;;;;;;5065207;28;24497;-66
2021/06/30 14:54:33;;;;;;;1.80;1.60;;;;;;;;;;5075472;28;24414;-66
2021/06/30 14:56:59;;;;;;;1.60;1.50;;;;;;;;;;5071217;28;24525;-66
2021/06/30 14:59:24;;;;;;;2.90;1.80;;;;;;;;;;5071723;28;24418;-66
2021/06/30 15:01:49;;;;;;;1.67;1.60;;;;;;;;;;5072045;28;24419;-66
2021/06/30 15:04:14;;;;;;;1.90;1.80;;;;;;;;;;5067522;28;24415;-67
2021/06/30 15:06:39;;;;;;;1.90;1.80;;;;;;;;;;5081491;28;24464;-65
2021/06/30 15:09:05;;;;;;;1.90;1.80;;;;;;;;;;5086859;28;24972;-65
2021/06/30 15:11:30;;;;;;;2.00;1.80;;;;;;;;;;5072317;28;24994;-65
2021/06/30 15:13:57;;;;;;;2.10;1.90;;;;;;;;;;5070153;28;24851;-65
2021/06/30 15:16:23;;;;;;;2.20;2.10;;;;;;;;;;5072943;28;24403;-65
2021/06/30 15:18:48;;;;;;;2.10;1.80;;;;;;;;;;5068305;28;24890;-65
2021/06/30 15:21:13;;;;;;;2.00;1.90;;;;;;;;;;5082369;28;24410;-66
2021/06/30 15:23:38;;;;;;;2.00;1.90;;;;;;;;;;5071048;28;24422;-66
2021/06/30 15:26:03;;;;;;;2.28;2.08;;;;;;;;;;5067717;28;24403;-66
2021/06/30 15:28:28;;;;;;;2.40;2.20;;;;;;;;;;5078393;28;24826;-67
2021/06/30 15:30:54;;;;;;;1.90;1.80;;;;;;;;;;5084003;28;26011;-67
2021/06/30 15:33:20;;;;;;;2.25;2.00;;;;;;;;;;5079798;28;24435;-66
2021/06/30 15:35:45;;;;;;;2.00;1.90;;;;;;;;;;5087562;28;24398;-67
2021/06/30 15:38:10;;;;;;;2.20;2.00;;;;;;;;;;5080578;28;24845;-66
2021/06/30 15:40:35;;;;;;;2.00;1.90;;;;;;;;;;5077102;28;24422;-65
2021/06/30 15:43:00;;;;;;;1.90;1.80;;;;;;;;;;5086755;28;25028;-65
2021/06/30 15:45:26;;;;;;;2.60;1.90;;;;;;;;;;5084096;28;24427;-65
2021/06/30 15:47:51;;;;;;;2.50;2.30;;;;;;;;;;5071537;28;24956;-63
2021/06/30 15:50:16;;;;;;;2.75;2.10;;;;;;;;;;5079612;28;24410;-67
2021/06/30 15:52:42;;;;;;;2.30;1.90;;;;;;;;;;5066414;28;24482;-66
2021/06/30 15:55:11;;;;;;;2.10;2.00;;;;;;;;;;5066206;28;24419;-67
2021/06/30 15:57:36;;;;;;;2.00;1.90;;;;;;;;;;5067545;28;24766;-67
2021/06/30 16:00:03;;;;;;;2.00;1.90;;;;;;;;;;5068234;28;24480;-67
2021/06/30 16:02:30;;;;;;;2.30;2.10;;;;;;;;;;5076048;28;24474;-69
2021/06/30 16:04:56;;;;;;;2.20;2.00;;;;;;;;;;5081664;28;24422;-68
2021/06/30 16:07:24;;;;;;;2.50;2.30;;;;;;;;;;5066005;28;24449;-66
2021/06/30 16:09:49;;;;;;;2.50;2.30;;;;;;;;;;5068898;28;24529;-69
2021/06/30 16:12:15;;;;;;;2.20;2.10;;;;;;;;;;5074179;28;24505;-67
2021/06/30 16:14:40;;;;;;;2.13;2.03;;;;;;;;;;5077529;28;24823;-68
2021/06/30 16:17:05;;;;;;;2.10;2.00;;;;;;;;;;5069662;28;25041;-62
2021/06/30 16:19:30;;;;;;;2.35;2.00;;;;;;;;;;5070212;28;24437;-61
2021/06/30 16:21:55;;;;;;;2.40;2.30;;;;;;;;;;5076391;28;25013;-63
2021/06/30 16:24:21;;;;;;;2.33;2.23;;;;;;;;;;5069578;28;24498;-63
2021/06/30 16:26:46;;;;;;;2.38;2.10;;;;;;;;;;5068248;28;24972;-62
2021/06/30 16:29:12;;;;;;;2.40;2.20;;;;;;;;;;5077594;28;24511;-63
2021/06/30 16:31:37;;;;;;;2.33;2.20;;;;;;;;;;5066994;28;24410;-63
2021/06/30 16:34:03;;;;;;;2.60;2.40;;;;;;;;;;5066397;28;24422;-63
2021/06/30 16:36:33;;;;;;;2.67;2.47;;;;;;;;;;5066143;28;24671;-63
2021/06/30 16:38:58;;;;;;;2.40;2.20;;;;;;;;;;5066351;28;24469;-62
2021/06/30 16:41:23;;;;;;;2.70;2.50;;;;;;;;;;5066745;28;24383;-63
2021/06/30 16:43:49;;;;;;;2.60;2.40;;;;;;;;;;5066237;28;24490;-63
2021/06/30 16:46:14;;;;;;;2.50;2.40;;;;;;;;;;5066639;28;24683;-62
2021/06/30 16:48:40;;;;;;;2.90;2.60;;;;;;;;;;5066553;28;24761;-62
2021/06/30 16:51:06;;;;;;;2.67;2.47;;;;;;;;;;5066193;28;24449;-62
2021/06/30 16:53:31;;;;;;;2.70;2.60;;;;;;;;;;5066262;28;24450;-62
2021/06/30 16:55:57;;;;;;;2.67;2.30;;;;;;;;;;5066370;28;24448;-62
2021/06/30 16:58:22;;;;;;;2.50;2.30;;;;;;;;;;5066639;28;24389;-62
2021/06/30 17:00:47;;;;;;;2.70;2.50;;;;;;;;;;5076838;28;25103;-62
2021/06/30 17:03:12;;;;;;;2.50;2.30;;;;;;;;;;5076636;28;26425;-62
2021/06/30 17:05:37;;;;;;;2.40;2.30;;;;;;;;;;5075921;28;24514;-62
2021/06/30 17:08:03;;;;;;;2.70;2.50;;;;;;;;;;5070186;28;24435;-62
2021/06/30 17:10:28;;;;;;;3.30;2.83;;;;;;;;;;5086312;28;24493;-63
2021/06/30 17:12:53;;;;;;;2.63;2.53;;;;;;;;;;5078154;28;24484;-63
2021/06/30 17:15:19;;;;;;;3.00;2.80;;;;;;;;;;5063109;28;24422;-63
2021/06/30 17:17:45;;;;;;;3.50;3.30;;;;;;;;;;5072800;28;24440;-62
2021/06/30 17:20:10;;;;;;;4.10;3.28;;;;;;;;;;5081651;28;24444;-63
2021/06/30 17:22:36;;;;;;;2.70;2.60;;;;;;;;;;5083440;28;24433;-62
2021/06/30 17:25:03;;;;;;;3.30;3.10;;;;;;;;;;5071338;28;24638;-62
2021/06/30 17:27:28;;;;;;;3.00;2.80;;;;;;;;;;5064215;28;25329;-62
2021/06/30 17:29:54;;;;;;;3.70;3.40;;;;;;;;;;5071314;28;24771;-63
2021/06/30 17:32:19;;;;;;;3.00;2.80;;;;;;;;;;5066863;28;24518;-63
2021/06/30 17:34:44;;;;;;;3.10;2.90;;;;;;;;;;5071108;28;24502;-63
2021/06/30 17:37:09;;;;;;;4.10;3.80;;;;;;;;;;5073139;28;24457;-62
2021/06/30 17:39:35;;;;;;;3.40;3.20;;;;;;;;;;5063515;28;24407;-63
2021/06/30 17:42:00;;;;;;;2.77;2.67;;;;;;;;;;5072322;28;24413;-63
2021/06/30 17:44:25;;;;;;;2.95;2.75;;;;;;;;;;5071267;28;24457;-63
2021/06/30 17:46:50;;;;;;;2.90;2.80;;;;;;;;;;5082714;28;24418;-65
2021/06/30 17:49:19;;;;;;;2.80;2.60;;;;;;;;;;5081228;28;24433;-64
2021/06/30 17:51:45;;;;;;;2.63;2.42;;;;;;;;;;5070317;28;24992;-63
2021/06/30 17:54:11;;;;;;;3.00;2.80;;;;;;;;;;5076891;28;24430;-63
2021/06/30 17:56:55;;;;;;;2.97;2.77;;;;;;;;;;5079945;28;25383;-64
2021/06/30 17:59:21;;;;;;;2.90;2.70;;;;;;;;;;5073819;28;24411;-62
2021/06/30 18:01:46;;;;;;;3.30;3.10;;;;;;;;;;5070617;28;25398;-61
2021/06/30 18:04:12;;;;;;;3.30;3.10;;;;;;;;;;5073081;28;24971;-64
2021/06/30 18:06:37;;;;;;;2.80;2.60;;;;;;;;;;5071918;28;24883;-64
2021/06/30 18:09:03;;;;;;;2.88;2.78;;;;;;;;;;5071161;28;25193;-67
2021/06/30 18:11:28;;;;;;;3.25;2.97;;;;;;;;;;5071378;28;24913;-68
2021/06/30 18:13:53;;;;;;;2.67;2.57;;;;;;;;;;5067806;28;24468;-67
2021/06/30 18:16:20;;;;;;;3.10;2.90;;;;;;;;;;5078094;28;25019;-68
2021/06/30 18:18:45;;;;;;;2.92;2.72;;;;;;;;;;5065322;28;25012;-66
2021/06/30 18:21:10;;;;;;;2.90;2.70;;;;;;;;;;5064710;28;24522;-67
2021/06/30 18:23:35;;;;;;;3.38;3.17;;;;;;;;;;5065781;28;24522;-66
2021/06/30 18:26:00;;;;;;;2.90;2.80;;;;;;;;;;5066446;28;24807;-66
2021/06/30 18:28:26;;;;;;;2.90;2.70;;;;;;;;;;5065576;28;24423;-66
2021/06/30 18:30:51;;;;;;;2.80;2.60;;;;;;;;;;5066451;28;24457;-66
2021/06/30 18:33:16;;;;;;;3.08;2.83;;;;;;;;;;5075487;28;24517;-66
2021/06/30 18:35:42;;;;;;;3.00;2.80;;;;;;;;;;5086852;28;24927;-67
2021/06/30 18:38:07;;;;;;;2.85;2.65;;;;;;;;;;5086305;28;24409;-67
2021/06/30 18:40:32;;;;;;;2.90;2.40;;;;;;;;;;5075632;28;24776;-67
2021/06/30 18:42:57;;;;;;;2.93;2.83;;;;;;;;;;5071885;28;24948;-66
2021/06/30 18:45:23;;;;;;;2.97;2.77;;;;;;;;;;5078553;28;24430;-67
2021/06/30 18:47:48;;;;;;;2.93;2.73;;;;;;;;;;5070714;28;24436;-66
2021/06/30 18:50:14;;;;;;;2.50;2.40;;;;;;;;;;5077989;28;25052;-68
2021/06/30 18:52:39;;;;;;;2.60;2.40;;;;;;;;;;5072245;28;24422;-66
2021/06/30 18:55:05;;;;;;;2.80;2.60;;;;;;;;;;5067086;28;25068;-65
2021/06/30 18:57:30;;;;;;;2.70;2.60;;;;;;;;;;5072688;28;24415;-67
2021/06/30 18:59:56;;;;;;;2.40;2.30;;;;;;;;;;5066434;28;24407;-66
2021/06/30 19:02:21;;;;;;;2.60;2.40;;;;;;;;;;5084153;28;25043;-67
2021/06/30 19:04:46;;;;;;;2.50;2.40;;;;;;;;;;5072727;28;24460;-68
2021/06/30 19:07:11;;;;;;;2.72;2.63;;;;;;;;;;5069027;28;24479;-68
2021/06/30 19:09:37;;;;;;;2.90;2.70;;;;;;;;;;5072809;28;24421;-68
2021/06/30 19:12:03;;;;;;;2.87;2.70;;;;;;;;;;5081806;28;24397;-67
2021/06/30 19:14:28;;;;;;;3.20;3.00;;;;;;;;;;5069624;28;24481;-67
2021/06/30 19:16:53;;;;;;;3.17;3.00;;;;;;;;;;5076638;28;24419;-69
2021/06/30 19:19:18;;;;;;;2.80;2.70;;;;;;;;;;5083013;28;24407;-66
2021/06/30 19:21:43;;;;;;;2.72;2.63;;;;;;;;;;5079924;28;24460;-66
2021/06/30 19:24:09;;;;;;;3.00;2.80;;;;;;;;;;5075324;28;24418;-66
2021/06/30 19:26:34;;;;;;;3.07;2.87;;;;;;;;;;5068589;28;24427;-66
2021/06/30 19:29:00;;;;;;;3.40;3.20;;;;;;;;;;5072363;28;24484;-66
2021/06/30 19:31:26;;;;;;;3.30;3.10;;;;;;;;;;5072712;28;24498;-66
2021/06/30 19:33:51;;;;;;;3.20;2.90;;;;;;;;;;5078471;28;24494;-66
2021/06/30 19:36:18;;;;;;;3.10;3.00;;;;;;;;;;5066338;28;24472;-66
2021/06/30 19:38:43;;;;;;;3.20;2.97;;;;;;;;;;5081487;28;24514;-67
2021/06/30 19:41:09;;;;;;;2.90;2.60;;;;;;;;;;5084884;28;25003;-66
2021/06/30 19:43:34;;;;;;;2.90;2.70;;;;;;;;;;5085395;28;24456;-67
2021/06/30 19:45:59;;;;;;;3.33;3.13;;;;;;;;;;5079010;28;24440;-67
2021/06/30 19:48:24;;;;;;;4.10;3.78;;;;;;;;;;5065097;28;25032;-67
2021/06/30 19:50:59;;;;;;;3.70;3.30;;;;;;;;;;5064549;28;25247;-67
2021/06/30 19:53:24;;;;;;;3.30;3.00;;;;;;;;;;5075621;28;24433;-65
2021/06/30 19:55:50;;;;;;;3.57;3.37;;;;;;;;;;5082884;28;24788;-67
2021/06/30 19:58:15;;;;;;;3.80;3.50;;;;;;;;;;5079204;28;24500;-67
2021/06/30 20:00:41;;;;;;;3.50;3.30;;;;;;;;;;5072500;28;24445;-67
2021/06/30 20:03:06;;;;;;;3.90;3.70;;;;;;;;;;5077883;28;24447;-68
2021/06/30 20:05:31;;;;;;;3.80;3.60;;;;;;;;;;5078291;28;25425;-69
2021/06/30 20:07:57;;;;;;;3.38;3.17;;;;;;;;;;5072395;28;24512;-68
2021/06/30 20:10:23;;;;;;;3.97;3.70;;;;;;;;;;5076457;28;24524;-67
2021/06/30 20:12:49;;;;;;;4.05;3.75;;;;;;;;;;5068336;28;24895;-67
2021/06/30 20:15:14;;;;;;;3.83;3.63;;;;;;;;;;5064241;28;24398;-66
2021/06/30 20:17:40;;;;;;;4.00;3.70;;;;;;;;;;5068879;28;24577;-67
2021/06/30 20:20:06;;;;;;;4.03;3.73;;;;;;;;;;5067982;28;24430;-67
2021/06/30 20:22:32;;;;;;;3.77;3.57;;;;;;;;;;5068349;28;25039;-66
2021/06/30 20:24:57;;;;;;;3.63;3.33;;;;;;;;;;5070826;28;24426;-66
2021/06/30 20:27:22;;;;;;;3.33;3.03;;;;;;;;;;5077423;28;24442;-66
2021/06/30 20:29:47;;;;;;;4.40;3.80;;;;;;;;;;5068041;28;24429;-66
2021/06/30 20:32:12;;;;;;;4.20;3.90;;;;;;;;;;5079355;28;25210;-66
2021/06/30 20:34:38;;;;;;;3.70;3.50;;;;;;;;;;5082107;28;24413;-66
2021/06/30 20:37:03;;;;;;;4.13;3.83;;;;;;;;;;5078524;28;24998;-66
2021/06/30 20:39:29;;;;;;;4.43;4.13;;;;;;;;;;5076769;28;24441;-66
2021/06/30 20:41:55;;;;;;;4.20;3.90;;;;;;;;;;5067899;28;24424;-66
2021/06/30 20:44:22;;;;;;;3.80;3.60;;;;;;;;;;5068451;28;24423;-66
2021/06/30 20:46:47;;;;;;;4.03;3.72;;;;;;;;;;5067145;28;24414;-65
2021/06/30 20:49:13;;;;;;;4.13;3.85;;;;;;;;;;5071784;28;24831;-64
2021/06/30 20:51:38;;;;;;;4.73;4.43;;;;;;;;;;5073487;28;24493;-63
2021/06/30 20:54:03;;;;;;;4.70;4.40;;;;;;;;;;5076986;28;24795;-64
2021/06/30 20:56:36;;;;;;;4.60;4.30;;;;;;;;;;5067486;28;24472;-64
2021/06/30 20:59:01;;;;;;;4.80;4.40;;;;;;;;;;5065550;28;24419;-64
2021/06/30 21:01:26;;;;;;;5.40;5.00;;;;;;;;;;5069494;28;24506;-64
2021/06/30 21:03:52;;;;;;;5.10;4.70;;;;;;;;;;5071865;28;24433;-64
2021/06/30 21:06:17;;;;;;;4.70;4.40;;;;;;;;;;5075942;28;24972;-65
2021/06/30 21:08:42;;;;;;;4.55;4.25;;;;;;;;;;5064620;28;24521;-64
2021/06/30 21:11:07;;;;;;;5.00;4.70;;;;;;;;;;5062795;28;24429;-64
2021/06/30 21:13:32;;;;;;;4.55;4.25;;;;;;;;;;5066908;28;24799;-64
2021/06/30 21:15:57;;;;;;;5.10;4.70;;;;;;;;;;5069451;28;24454;-65
2021/06/30 21:18:22;;;;;;;4.75;4.45;;;;;;;;;;5064636;28;24476;-65
2021/06/30 21:20:47;;;;;;;4.50;4.20;;;;;;;;;;5063186;28;24841;-64
2021/06/30 21:23:13;;;;;;;4.43;4.18;;;;;;;;;;5070264;28;24414;-64
2021/06/30 21:25:39;;;;;;;5.50;5.10;;;;;;;;;;5072796;28;24555;-64
2021/06/30 21:28:05;;;;;;;4.68;4.28;;;;;;;;;;5074232;28;24499;-64
2021/06/30 21:30:32;;;;;;;5.35;4.95;;;;;;;;;;5069630;28;24464;-64
2021/06/30 21:32:57;;;;;;;5.50;5.10;;;;;;;;;;5077547;28;24440;-65
2021/06/30 21:35:22;;;;;;;6.20;5.38;;;;;;;;;;5066207;28;24419;-64
2021/06/30 21:37:49;;;;;;;5.30;5.00;;;;;;;;;;5076765;28;24987;-64
2021/06/30 21:40:14;;;;;;;5.80;5.30;;;;;;;;;;5065571;28;24472;-65
2021/06/30 21:42:39;;;;;;;5.20;4.90;;;;;;;;;;5066100;28;24453;-64
2021/06/30 21:45:05;;;;;;;5.33;4.93;;;;;;;;;;5073771;28;24422;-64
2021/06/30 21:47:30;;;;;;;5.23;4.83;;;;;;;;;;5068795;28;24484;-65
2021/06/30 21:49:55;;;;;;;5.60;5.20;;;;;;;;;;5073060;28;24529;-65
2021/06/30 21:52:20;;;;;;;6.60;6.10;;;;;;;;;;5069778;28;24414;-65
2021/06/30 21:54:45;;;;;;;5.60;5.20;;;;;;;;;;5073164;28;24513;-65
2021/06/30 21:57:11;;;;;;;4.88;4.57;;;;;;;;;;5066017;28;25027;-65
2021/06/30 21:59:36;;;;;;;5.77;5.00;;;;;;;;;;5068007;28;24422;-65
2021/06/30 22:02:04;;;;;;;5.30;4.90;;;;;;;;;;5077746;28;24410;-65
2021/06/30 22:04:29;;;;;;;5.47;5.18;;;;;;;;;;5075300;28;24435;-65
2021/06/30 22:06:55;;;;;;;5.10;4.70;;;;;;;;;;5082229;28;24419;-65
2021/06/30 22:09:20;;;;;;;5.50;5.00;;;;;;;;;;5067670;28;24419;-67
2021/06/30 22:11:45;;;;;;;4.70;4.40;;;;;;;;;;5073641;28;24457;-66
2021/06/30 22:14:10;;;;;;;5.00;4.60;;;;;;;;;;5072239;28;24411;-65
2021/06/30 22:16:35;;;;;;;4.60;4.30;;;;;;;;;;5068938;28;24426;-66
2021/06/30 22:19:01;;;;;;;5.03;4.63;;;;;;;;;;5082353;28;24415;-65
2021/06/30 22:21:26;;;;;;;5.20;4.90;;;;;;;;;;5085336;28;24632;-66
2021/06/30 22:23:51;;;;;;;4.23;3.93;;;;;;;;;;5077913;28;24984;-67
2021/06/30 22:26:16;;;;;;;3.80;3.60;;;;;;;;;;5073101;28;24878;-65
2021/06/30 22:28:42;;;;;;;4.10;3.90;;;;;;;;;;5066430;28;25028;-66
2021/06/30 22:31:08;;;;;;;2.97;2.67;;;;;;;;;;5073275;28;24514;-66
2021/06/30 22:33:33;;;;;;;3.30;3.10;;;;;;;;;;5068537;28;24411;-67
2021/06/30 22:35:58;;;;;;;2.77;2.67;;;;;;;;;;5070323;28;24426;-66
2021/06/30 22:38:23;;;;;;;2.33;2.23;;;;;;;;;;5074744;28;24975;-66
2021/06/30 22:40:49;;;;;;;2.30;2.10;;;;;;;;;;5071720;28;24991;-66
2021/06/30 22:43:14;;;;;;;2.30;2.20;;;;;;;;;;5075548;28;24577;-66
2021/06/30 22:45:40;;;;;;;2.45;2.35;;;;;;;;;;5086692;28;24796;-66
2021/06/30 22:48:06;;;;;;;2.27;2.10;;;;;;;;;;5081432;28;24515;-66
2021/06/30 22:50:31;;;;;;;2.00;1.90;;;;;;;;;;5074815;28;24876;-67
2021/06/30 22:52:56;;;;;;;1.90;1.80;;;;;;;;;;5075068;28;24974;-66
2021/06/30 22:55:21;;;;;;;2.00;1.90;;;;;;;;;;5068883;28;24407;-66
2021/06/30 22:57:47;;;;;;;1.90;1.80;;;;;;;;;;5071771;28;24410;-65
2021/06/30 23:00:14;;;;;;;1.90;1.80;;;;;;;;;;5078917;28;24438;-66
2021/06/30 23:02:39;;;;;;;1.90;1.80;;;;;;;;;;5083062;28;24410;-65
2021/06/30 23:05:05;;;;;;;1.90;1.80;;;;;;;;;;5070821;28;24800;-65
2021/06/30 23:07:30;;;;;;;1.80;1.70;;;;;;;;;;5069315;28;24407;-66
2021/06/30 23:09:55;;;;;;;1.73;1.63;;;;;;;;;;5085426;28;24490;-66
2021/06/30 23:12:20;;;;;;;1.80;1.60;;;;;;;;;;5066445;28;24535;-66
2021/06/30 23:14:46;;;;;;;2.03;1.93;;;;;;;;;;5083623;28;24433;-65
2021/06/30 23:17:11;;;;;;;1.90;1.80;;;;;;;;;;5084537;28;24513;-66
2021/06/30 23:19:36;;;;;;;2.15;1.83;;;;;;;;;;5076482;28;24418;-66
2021/06/30 23:22:01;;;;;;;1.80;1.70;;;;;;;;;;5070359;28;24442;-66
2021/06/30 23:24:26;;;;;;;1.90;1.80;;;;;;;;;;5079979;28;25010;-66
2021/06/30 23:26:52;;;;;;;2.00;1.90;;;;;;;;;;5070353;28;24576;-65
2021/06/30 23:29:17;;;;;;;2.23;2.13;;;;;;;;;;5069882;28;24932;-66
2021/06/30 23:31:43;;;;;;;1.93;1.83;;;;;;;;;;5078891;28;24967;-66
2021/06/30 23:34:08;;;;;;;1.77;1.67;;;;;;;;;;5083534;28;24437;-66
2021/06/30 23:36:33;;;;;;;2.40;2.20;;;;;;;;;;5077407;28;24510;-65
2021/06/30 23:38:59;;;;;;;1.90;1.80;;;;;;;;;;5079729;28;24422;-66
2021/06/30 23:41:24;;;;;;;1.58;1.48;;;;;;;;;;5071297;28;24418;-66
2021/06/30 23:43:49;;;;;;;2.00;1.90;;;;;;;;;;5071172;28;24479;-65
2021/06/30 23:46:15;;;;;;;1.70;1.60;;;;;;;;;;5078141;28;24436;-65
2021/06/30 23:48:40;;;;;;;1.70;1.60;;;;;;;;;;5069584;28;24435;-65
2021/06/30 23:51:05;;;;;;;1.60;1.50;;;;;;;;;;5073456;28;24964;-66
2021/06/30 23:53:30;;;;;;;1.90;1.80;;;;;;;;;;5078151;28;24511;-65
2021/06/30 23:55:55;;;;;;;1.90;1.80;;;;;;;;;;5068025;28;24414;-64
2021/06/30 23:58:20;;;;;;;1.92;1.83;;;;;;;;;;5068823;28;24491;-65
